Hollis, New York
Current Conditions -  °F | °C
As of 2:51 PM on Tuesday 21 Oct 2014 (Local Time) from KJFK Reporting Station
Light Rain Light Rain  
Wind Chill: 61°   Ceiling: 6500
Heat Index: 61°   Visibility: 10mi
Dew Point: 56°   Wind: 7mph
Humidity: 83%   Direction: 80°E
Pressure: 29.84"   Gusts: NA
Location:  40.71°N, 73.77°W
Report Text: KJFK 211851Z 08006KT 10SM -RA FEW021 SCT030CB BKN065 BKN250 16/13 A2984 RMK AO2 RAE28B45 SLP105 CB E MOV NE P0003 T01610133
Loading
Personal Weather Stations






























Interactive Weather Map
Tropical Storm Tracking
New forecast layout! Learn more

10-Day Weather Forecast

Advertisements
Track Severe Weather on mobile